Time;durP1;ratioP1;P1;durP2;ratioP2;P2;SDS_P1;SDS_P2;PMS_P1;PMS_P2;Temp;Humidity;BMP_temperature;BMP_pressure;BME280_temperature;BME280_humidity;BME280_pressure;Samples;Min_cycle;Max_cycle;Signal;HPM_P1;HPM_P2
2023/08/16 00:02:13;;;;;;;7.25;5.93;;;;;;;20.79;64.66;100802.59;20660679;28;20609;-82
2023/08/16 00:12:16;;;;;;;6.78;5.85;;;;;;;20.87;64.27;100807.22;20665559;28;20339;-82
2023/08/16 00:22:18;;;;;;;10.15;6.35;;;;;;;20.50;66.82;100816.50;20661952;28;20521;-81
2023/08/16 00:32:22;;;;;;;8.95;5.95;;;;;;;20.82;65.73;100810.41;20660142;28;20228;-82
2023/08/16 00:42:23;;;;;;;8.45;5.88;;;;;;;20.48;66.54;100796.03;20660641;28;20209;-81
2023/08/16 00:52:26;;;;;;;8.82;6.25;;;;;;;20.75;65.59;100796.84;20663277;28;20222;-80
2023/08/16 01:02:28;;;;;;;8.07;5.88;;;;;;;20.38;66.42;100791.81;20669533;28;20216;-80
2023/08/16 01:12:36;;;;;;;10.82;6.30;;;;;;;20.50;66.45;100787.91;20663239;28;20230;-82
2023/08/16 01:22:46;;;;;;;6.85;6.18;;;;;;;20.11;67.79;100793.00;20662965;28;20205;-81
2023/08/16 01:32:49;;;;;;;9.52;6.97;;;;;;;19.88;67.39;100798.69;20671573;28;20221;-80
2023/08/16 01:42:52;;;;;;;12.57;6.57;;;;;;;20.15;66.07;100787.31;20677283;28;20202;-81
2023/08/16 01:52:55;;;;;;;8.32;7.53;;;;;;;20.07;65.28;100791.28;20678274;28;20226;-81
2023/08/16 02:02:56;;;;;;;11.85;7.07;;;;;;;19.97;65.49;100792.75;20681059;28;20293;-81
2023/08/16 02:12:59;;;;;;;9.15;8.18;;;;;;;19.71;66.41;100796.34;20679201;28;20676;-81
2023/08/16 02:23:01;;;;;;;9.73;7.35;;;;;;;19.77;66.33;100794.81;20675064;28;20194;-81
2023/08/16 02:33:04;;;;;;;9.90;8.02;;;;;;;19.73;66.50;100805.38;20674772;28;20225;-80
2023/08/16 02:43:07;;;;;;;9.50;7.57;;;;;;;19.49;66.50;100797.16;20673673;28;20208;-81
2023/08/16 02:53:10;;;;;;;11.05;7.57;;;;;;;19.38;66.86;100804.69;20678249;28;20226;-80
2023/08/16 03:03:11;;;;;;;11.70;8.00;;;;;;;19.52;66.42;100804.97;20671402;28;20194;-81
2023/08/16 03:13:14;;;;;;;9.23;8.32;;;;;;;19.14;67.56;100805.81;20677390;28;20253;-81
2023/08/16 03:23:16;;;;;;;13.50;8.18;;;;;;;19.19;67.21;100816.94;20672431;28;20194;-81
2023/08/16 03:33:19;;;;;;;12.10;8.38;;;;;;;18.99;67.51;100816.09;20668266;28;20224;-81
2023/08/16 03:43:21;;;;;;;12.88;8.70;;;;;;;18.96;67.75;100822.56;20677550;28;20217;-80
2023/08/16 03:53:24;;;;;;;11.38;8.45;;;;;;;18.68;68.31;100828.47;20666000;28;20534;-81
2023/08/16 04:03:26;;;;;;;11.95;9.02;;;;;;;18.71;69.48;100832.56;20665660;28;20523;-80
2023/08/16 04:13:29;;;;;;;9.77;8.77;;;;;;;18.52;69.50;100828.47;20669643;28;20218;-81
2023/08/16 04:23:31;;;;;;;9.55;8.50;;;;;;;18.55;70.18;100836.28;20660622;28;20197;-84
2023/08/16 04:33:37;;;;;;;9.52;8.52;;;;;;;18.95;67.16;100821.75;20693648;28;20259;-81
2023/08/16 04:43:39;;;;;;;10.65;8.48;;;;;;;19.15;67.59;100833.97;20660504;28;20190;-84
2023/08/16 04:53:42;;;;;;;14.52;8.52;;;;;;;19.37;67.09;100838.09;20652630;28;20519;-80
2023/08/16 05:03:50;;;;;;;11.80;7.90;;;;;;;19.39;66.69;100854.84;20657618;28;20556;-82
2023/08/16 05:13:53;;;;;;;11.10;8.00;;;;;;;19.66;66.69;100850.91;20603909;28;20229;-84
2023/08/16 05:23:55;;;;;;;9.60;8.30;;;;;;;19.75;66.87;100842.91;20598378;28;20198;-81
2023/08/16 05:33:58;;;;;;;10.73;7.90;;;;;;;19.34;67.56;100861.72;20599310;28;20669;-80
2023/08/16 05:44:00;;;;;;;10.15;8.40;;;;;;;19.36;68.64;100872.72;20620539;28;20257;-81
2023/08/16 05:54:04;;;;;;;10.00;8.38;;;;;;;19.39;67.05;100897.66;20587221;28;20222;-81
2023/08/16 06:04:06;;;;;;;14.27;9.75;;;;;;;18.42;69.56;100940.19;20621637;28;20232;-81
2023/08/16 06:14:09;;;;;;;11.27;9.68;;;;;;;19.37;66.62;100915.16;20667385;28;20222;-81
2023/08/16 06:24:11;;;;;;;10.90;8.60;;;;;;;19.26;66.35;100912.06;20669718;28;20197;-82
2023/08/16 06:34:14;;;;;;;11.18;7.07;;;;;;;19.06;67.40;100913.25;20672561;28;20251;-81
2023/08/16 06:44:16;;;;;;;14.25;8.27;;;;;;;19.20;66.73;100919.28;20670039;28;20201;-81
2023/08/16 06:54:19;;;;;;;7.18;5.80;;;;;;;19.21;66.74;100920.94;20667342;28;20237;-81
2023/08/16 07:04:20;;;;;;;10.85;6.38;;;;;;;19.32;65.87;100924.88;20661763;28;20643;-83
2023/08/16 07:14:24;;;;;;;6.50;5.15;;;;;;;19.07;66.79;100934.88;20672447;28;20240;-81
2023/08/16 07:24:25;;;;;;;6.68;5.95;;;;;;;19.38;66.02;100938.81;20670634;28;20212;-81
2023/08/16 07:34:28;;;;;;;10.10;6.63;;;;;;;19.39;65.52;100949.03;20667329;28;20579;-81
2023/08/16 07:44:30;;;;;;;11.70;6.78;;;;;;;19.77;63.28;100957.59;20663521;28;20209;-81
2023/08/16 07:54:33;;;;;;;11.15;8.20;;;;;;;20.14;62.91;100954.25;20668061;28;20227;-81
2023/08/16 08:04:35;;;;;;;11.63;9.73;;;;;;;19.69;64.30;100936.66;20667247;28;20324;-81
2023/08/16 08:14:38;;;;;;;11.43;10.27;;;;;;;19.37;66.69;100965.72;20668975;28;20225;-81
2023/08/16 08:24:40;;;;;;;13.77;10.88;;;;;;;20.30;63.47;100960.69;20663780;28;20549;-81
2023/08/16 08:34:43;;;;;;;21.42;16.20;;;;;;;20.34;62.93;100964.47;20680906;28;20218;-81
2023/08/16 08:44:45;;;;;;;15.10;13.20;;;;;;;20.50;61.93;100970.88;20674032;28;20292;-80
2023/08/16 08:54:49;;;;;;;13.00;11.63;;;;;;;19.93;65.75;100977.53;20685598;28;20229;-80
2023/08/16 09:04:52;;;;;;;12.32;9.85;;;;;;;19.96;64.96;100986.19;20665588;28;20245;-80
2023/08/16 09:14:55;;;;;;;15.15;10.18;;;;;;;19.97;65.00;100987.03;20621537;28;20505;-80
2023/08/16 09:24:58;;;;;;;11.55;8.93;;;;;;;20.32;63.60;100995.44;20584082;28;20622;-80
2023/08/16 09:35:02;;;;;;;13.35;10.70;;;;;;;19.69;66.30;100992.94;20610593;28;20221;-80
2023/08/16 09:45:04;;;;;;;17.38;11.90;;;;;;;20.10;65.15;100977.06;20620139;28;20195;-80
2023/08/16 09:55:09;;;;;;;16.70;11.45;;;;;;;20.70;62.85;100971.66;20607993;28;20226;-80
2023/08/16 10:05:10;;;;;;;14.85;11.65;;;;;;;20.48;62.06;100970.44;20625334;28;20233;-81
2023/08/16 10:15:16;;;;;;;14.40;10.30;;;;;;;20.72;62.04;100960.66;20679725;28;20218;-80
2023/08/16 10:25:23;;;;;;;13.95;9.10;;;;;;;20.67;61.89;100976.09;20683591;28;20293;-80
2023/08/16 10:35:26;;;;;;;12.88;8.10;;;;;;;20.42;63.68;100977.66;20691669;28;20623;-80
2023/08/16 10:45:29;;;;;;;12.18;7.68;;;;;;;20.86;60.76;100982.94;20678252;28;20201;-80
2023/08/16 10:55:33;;;;;;;11.25;8.38;;;;;;;20.83;61.73;100978.81;20672026;28;20316;-80
2023/08/16 11:05:35;;;;;;;8.55;6.22;;;;;;;20.95;60.77;100975.75;20671943;28;20222;-81
2023/08/16 11:15:38;;;;;;;8.23;6.68;;;;;;;21.04;61.35;100973.41;20669919;28;20312;-80
2023/08/16 11:25:40;;;;;;;8.50;5.88;;;;;;;21.74;57.79;100964.22;20675309;28;20525;-80
2023/08/16 11:35:43;;;;;;;11.60;5.93;;;;;;;21.37;58.41;100963.31;20667649;28;20221;-80
2023/08/16 11:45:51;;;;;;;12.25;5.43;;;;;;;21.75;58.84;100950.72;20660848;28;20662;-80
2023/08/16 11:55:59;;;;;;;9.60;5.65;;;;;;;21.08;58.86;100950.59;20668254;28;20284;-81
2023/08/16 12:06:05;;;;;;;9.30;5.30;;;;;;;21.43;58.86;100961.78;20664750;28;20233;-80
2023/08/16 12:16:08;;;;;;;6.93;5.10;;;;;;;21.26;58.20;100968.88;20668028;28;20217;-80
2023/08/16 12:26:10;;;;;;;5.78;4.13;;;;;;;21.97;56.92;100944.03;20680888;28;20294;-80
2023/08/16 12:36:19;;;;;;;6.95;4.25;;;;;;;21.58;57.74;100934.13;20664644;28;20273;-80
2023/08/16 12:46:20;;;;;;;5.85;4.03;;;;;;;22.18;55.04;100919.69;20666583;28;20564;-80
2023/08/16 12:56:23;;;;;;;6.03;3.90;;;;;;;22.46;54.61;100917.94;20679210;28;20309;-80
2023/08/16 13:06:25;;;;;;;5.47;3.65;;;;;;;22.10;55.95;100933.09;20664909;28;20313;-80
2023/08/16 13:16:28;;;;;;;7.97;4.50;;;;;;;22.14;56.53;100925.38;20670462;28;20601;-81
2023/08/16 13:26:30;;;;;;;5.82;4.35;;;;;;;22.26;56.50;100909.94;20656646;28;20237;-80
2023/08/16 13:36:34;;;;;;;5.00;3.08;;;;;;;23.02;53.10;100892.94;20679180;28;20500;-81
2023/08/16 13:46:37;;;;;;;3.63;3.03;;;;;;;22.84;53.99;100889.94;20676392;28;20234;-81
2023/08/16 13:56:49;;;;;;;6.38;3.83;;;;;;;22.99;56.18;100888.03;20679179;28;20478;-82
2023/08/16 14:06:51;;;;;;;7.22;3.90;;;;;;;23.29;52.26;100885.69;20675464;28;20245;-81
2023/08/16 14:16:54;;;;;;;5.65;3.95;;;;;;;23.59;51.68;100871.09;20674143;28;20258;-81
2023/08/16 14:27:01;;;;;;;8.85;3.42;;;;;;;23.62;52.11;100858.78;20699809;28;20215;-80
2023/08/16 14:37:06;;;;;;;6.85;3.33;;;;;;;23.75;51.68;100856.38;20691826;28;20233;-81
2023/08/16 14:47:08;;;;;;;7.15;4.10;;;;;;;23.80;52.34;100853.88;20675624;28;20237;-81
2023/08/16 14:57:11;;;;;;;5.45;3.00;;;;;;;24.26;50.43;100847.41;20670177;28;20240;-78
2023/08/16 15:07:13;;;;;;;7.80;3.47;;;;;;;23.29;54.06;100862.72;20677839;28;20232;-79
2023/08/16 15:17:16;;;;;;;3.83;2.67;;;;;;;23.68;53.17;100862.06;20664840;28;20241;-79
2023/08/16 15:27:19;;;;;;;5.75;2.50;;;;;;;23.19;54.40;100864.34;20667612;28;20209;-79
2023/08/16 15:37:23;;;;;;;5.32;2.67;;;;;;;23.10;53.27;100865.94;20666624;28;20222;-79
2023/08/16 15:47:25;;;;;;;4.70;2.47;;;;;;;22.70;53.97;100858.28;20665589;28;20590;-80
2023/08/16 15:57:28;;;;;;;6.30;2.50;;;;;;;23.30;53.35;100844.28;20660813;28;20542;-79
2023/08/16 16:07:30;;;;;;;5.60;2.63;;;;;;;23.72;52.39;100839.94;20636509;28;20588;-81
2023/08/16 16:17:34;;;;;;;4.25;1.92;;;;;;;23.43;52.67;100834.06;20648019;28;20318;-80
2023/08/16 16:27:37;;;;;;;2.85;2.00;;;;;;;22.86;54.87;100821.50;20749799;28;20201;-79
2023/08/16 16:37:40;;;;;;;3.53;2.30;;;;;;;22.71;54.88;100809.13;20740930;28;20229;-79
2023/08/16 16:47:43;;;;;;;5.25;2.08;;;;;;;22.81;56.89;100802.59;20744623;28;20197;-80
2023/08/16 16:57:46;;;;;;;4.47;2.13;;;;;;;22.35;56.83;100798.56;20740201;28;20221;-81
2023/08/16 17:07:48;;;;;;;6.13;2.80;;;;;;;22.94;53.96;100803.09;20756597;28;20505;-79
2023/08/16 17:17:51;;;;;;;3.03;2.33;;;;;;;22.60;55.51;100813.94;20721018;28;20256;-80
2023/08/16 17:27:53;;;;;;;5.20;2.30;;;;;;;22.79;54.87;100816.53;20696094;28;20209;-82
2023/08/16 17:37:56;;;;;;;5.43;2.45;;;;;;;22.44;56.33;100831.47;20724809;28;20880;-81
